Time;durP1;ratioP1;P1;durP2;ratioP2;P2;SDS_P1;SDS_P2;PMS_P1;PMS_P2;Temp;Humidity;BMP_temperature;BMP_pressure;BME280_temperature;BME280_humidity;BME280_pressure;Samples;Min_cycle;Max_cycle;Signal;HPM_P1;HPM_P2
2021/10/09 00:01:27;;;;;;;39.28;22.45;;;;;;;;;;4953927;29;20090;-80
2021/10/09 00:03:53;;;;;;;39.25;22.50;;;;;;;;;;4954842;29;20424;-80
2021/10/09 00:06:20;;;;;;;47.08;23.70;;;;;;;;;;4954843;29;20031;-80
2021/10/09 00:08:46;;;;;;;44.83;25.08;;;;;;;;;;4954696;29;20082;-80
2021/10/09 00:11:21;;;;;;;48.03;23.80;;;;;;;;;;4937030;29;20031;-80
2021/10/09 00:13:47;;;;;;;42.80;25.98;;;;;;;;;;4953995;29;20035;-80
2021/10/09 00:16:15;;;;;;;41.95;23.95;;;;;;;;;;4955132;29;20432;-80
2021/10/09 00:18:41;;;;;;;40.95;23.70;;;;;;;;;;4938670;29;20027;-80
2021/10/09 00:21:07;;;;;;;40.88;23.83;;;;;;;;;;4955409;29;20035;-80
2021/10/09 00:23:33;;;;;;;44.28;23.92;;;;;;;;;;4975886;28;20071;-80
2021/10/09 00:25:59;;;;;;;46.75;26.10;;;;;;;;;;4962851;28;20031;-79
2021/10/09 00:28:25;;;;;;;43.55;24.23;;;;;;;;;;4966395;29;20036;-80
2021/10/09 00:30:51;;;;;;;43.75;25.15;;;;;;;;;;4978959;28;20046;-79
2021/10/09 00:33:17;;;;;;;43.63;24.75;;;;;;;;;;4978390;28;20267;-81
2021/10/09 00:35:43;;;;;;;41.75;24.33;;;;;;;;;;4951686;29;20043;-80
2021/10/09 00:38:09;;;;;;;38.33;23.75;;;;;;;;;;4957495;29;20051;-81
2021/10/09 00:40:35;;;;;;;40.92;23.60;;;;;;;;;;4947310;29;20046;-80
2021/10/09 00:43:01;;;;;;;45.47;24.92;;;;;;;;;;4971925;28;20027;-80
2021/10/09 00:45:27;;;;;;;47.92;24.25;;;;;;;;;;4973221;29;20195;-81
2021/10/09 00:47:53;;;;;;;41.88;23.95;;;;;;;;;;4961853;29;20038;-81
2021/10/09 00:50:19;;;;;;;40.90;24.52;;;;;;;;;;4962293;29;20043;-81
2021/10/09 00:52:45;;;;;;;44.00;25.58;;;;;;;;;;4958610;29;20429;-81
2021/10/09 00:55:11;;;;;;;47.55;26.10;;;;;;;;;;4961862;29;20035;-80
2021/10/09 00:57:39;;;;;;;45.25;25.98;;;;;;;;;;4960890;29;20054;-81
2021/10/09 01:00:06;;;;;;;48.22;25.58;;;;;;;;;;4962911;29;20078;-80
2021/10/09 01:02:35;;;;;;;46.03;26.35;;;;;;;;;;4963191;29;20026;-80
2021/10/09 01:05:02;;;;;;;48.55;26.40;;;;;;;;;;4963255;29;20023;-80
2021/10/09 01:07:28;;;;;;;48.60;26.77;;;;;;;;;;4962655;29;20027;-80
2021/10/09 01:09:54;;;;;;;49.53;27.45;;;;;;;;;;4963477;29;20142;-80
2021/10/09 01:12:20;;;;;;;50.53;26.95;;;;;;;;;;4958707;29;20047;-80
2021/10/09 01:14:47;;;;;;;50.38;26.73;;;;;;;;;;4974759;29;20038;-80
2021/10/09 01:17:14;;;;;;;46.47;25.83;;;;;;;;;;4964571;29;20499;-80
2021/10/09 01:19:40;;;;;;;49.85;26.23;;;;;;;;;;4958212;29;20054;-80
2021/10/09 01:22:06;;;;;;;49.80;25.83;;;;;;;;;;4958116;29;20031;-80
2021/10/09 01:24:32;;;;;;;48.15;26.50;;;;;;;;;;4958995;29;20061;-80
2021/10/09 01:26:58;;;;;;;55.42;27.17;;;;;;;;;;4941557;29;20118;-80
2021/10/09 01:29:24;;;;;;;48.00;26.33;;;;;;;;;;4957928;29;20063;-80
2021/10/09 01:31:50;;;;;;;53.60;28.33;;;;;;;;;;4957851;29;20032;-80
2021/10/09 01:34:20;;;;;;;56.60;29.50;;;;;;;;;;4958339;29;20031;-80
2021/10/09 01:36:47;;;;;;;57.63;28.48;;;;;;;;;;4958527;29;20591;-80
2021/10/09 01:39:15;;;;;;;48.50;26.80;;;;;;;;;;4940542;29;20027;-80
2021/10/09 01:41:42;;;;;;;52.97;27.92;;;;;;;;;;4957886;29;20020;-80
2021/10/09 01:44:08;;;;;;;56.22;28.80;;;;;;;;;;4957796;29;20058;-80
2021/10/09 01:46:34;;;;;;;54.60;27.50;;;;;;;;;;4941222;29;20035;-80
2021/10/09 01:49:00;;;;;;;54.88;30.63;;;;;;;;;;4958653;29;20066;-80
2021/10/09 01:51:28;;;;;;;54.80;29.38;;;;;;;;;;4957268;29;20023;-80
2021/10/09 01:53:54;;;;;;;60.08;29.73;;;;;;;;;;4956901;28;20035;-80
2021/10/09 01:56:20;;;;;;;53.25;29.00;;;;;;;;;;4951432;29;20585;-80
2021/10/09 01:58:46;;;;;;;56.45;28.95;;;;;;;;;;4953952;29;20036;-80
2021/10/09 02:01:12;;;;;;;62.55;31.75;;;;;;;;;;4940395;29;20553;-80
2021/10/09 02:03:38;;;;;;;70.13;33.88;;;;;;;;;;4957920;29;20584;-80
2021/10/09 02:06:04;;;;;;;64.10;32.58;;;;;;;;;;4957479;29;20073;-80
2021/10/09 02:08:30;;;;;;;64.35;32.72;;;;;;;;;;4941590;29;20034;-80
2021/10/09 02:13:28;;;;;;;62.53;29.13;;;;;;;;;;4959464;29;20063;-80
2021/10/09 02:16:17;;;;;;;55.90;27.25;;;;;;;;;;4957831;29;20094;-80
2021/10/09 02:26:32;;;;;;;61.70;30.93;;;;;;;;;;4950812;29;20036;-80
2021/10/09 02:28:58;;;;;;;60.53;31.25;;;;;;;;;;4956846;29;20480;-80
2021/10/09 02:31:24;;;;;;;57.60;31.52;;;;;;;;;;4956532;29;20035;-80
2021/10/09 02:33:50;;;;;;;63.35;30.85;;;;;;;;;;4957360;29;20050;-80
2021/10/09 02:36:17;;;;;;;57.45;28.35;;;;;;;;;;4957094;29;20042;-80
2021/10/09 02:38:43;;;;;;;55.80;27.70;;;;;;;;;;4957086;29;20034;-80
2021/10/09 02:41:09;;;;;;;58.33;30.63;;;;;;;;;;4956638;29;20392;-80
2021/10/09 02:43:35;;;;;;;53.22;28.05;;;;;;;;;;4956544;29;20035;-80
2021/10/09 02:46:01;;;;;;;55.08;29.33;;;;;;;;;;4939629;29;20042;-80
2021/10/09 02:48:27;;;;;;;56.65;28.50;;;;;;;;;;4957320;29;20176;-80
2021/10/09 02:50:53;;;;;;;56.22;28.42;;;;;;;;;;4956367;29;20032;-80
2021/10/09 02:53:19;;;;;;;55.83;27.75;;;;;;;;;;4957004;29;20039;-80
2021/10/09 02:55:45;;;;;;;54.00;28.33;;;;;;;;;;4956781;29;20031;-80
2021/10/09 02:58:11;;;;;;;42.78;26.05;;;;;;;;;;4958139;29;20031;-79
2021/10/09 03:00:37;;;;;;;51.85;25.27;;;;;;;;;;4968658;29;20039;-79
2021/10/09 03:03:03;;;;;;;47.15;26.77;;;;;;;;;;4953154;29;20088;-80
2021/10/09 03:05:29;;;;;;;51.38;26.52;;;;;;;;;;4951907;29;20035;-80
2021/10/09 03:07:55;;;;;;;51.30;27.90;;;;;;;;;;4969734;29;20023;-80
2021/10/09 03:10:21;;;;;;;52.67;26.25;;;;;;;;;;4969577;29;20062;-79
2021/10/09 03:12:47;;;;;;;57.42;30.63;;;;;;;;;;4969476;29;20054;-80
2021/10/09 03:15:14;;;;;;;59.85;29.88;;;;;;;;;;4970363;29;20043;-80
2021/10/09 03:17:40;;;;;;;59.95;29.40;;;;;;;;;;4969903;29;20027;-80
2021/10/09 03:20:07;;;;;;;56.78;30.25;;;;;;;;;;4963327;29;20027;-80
2021/10/09 03:22:33;;;;;;;63.25;31.48;;;;;;;;;;4955981;29;20059;-80
2021/10/09 03:24:59;;;;;;;58.63;31.02;;;;;;;;;;4956235;29;20476;-80
2021/10/09 03:27:26;;;;;;;52.58;28.60;;;;;;;;;;4941278;29;20047;-80
2021/10/09 03:29:52;;;;;;;52.05;27.35;;;;;;;;;;4952330;29;20504;-81
2021/10/09 03:32:18;;;;;;;54.25;28.00;;;;;;;;;;4953331;29;20038;-80
2021/10/09 03:34:44;;;;;;;52.63;27.75;;;;;;;;;;4956077;29;20408;-80
2021/10/09 03:37:11;;;;;;;54.75;28.08;;;;;;;;;;4956218;29;20023;-80
2021/10/09 03:39:39;;;;;;;56.97;27.95;;;;;;;;;;4943522;29;20031;-81
2021/10/09 03:42:10;;;;;;;56.40;28.85;;;;;;;;;;4968183;29;20031;-80
2021/10/09 03:44:47;;;;;;;54.45;27.63;;;;;;;;;;4966953;29;20031;-80
2021/10/09 03:47:19;;;;;;;55.88;29.77;;;;;;;;;;4965671;29;20553;-79
2021/10/09 03:49:58;;;;;;;58.22;29.73;;;;;;;;;;4960547;29;20027;-80
2021/10/09 03:52:41;;;;;;;59.45;29.10;;;;;;;;;;4940326;29;20118;-80
2021/10/09 03:55:10;;;;;;;56.03;30.73;;;;;;;;;;4955852;29;20507;-80
2021/10/09 03:57:36;;;;;;;58.80;30.83;;;;;;;;;;4943374;29;20027;-80
2021/10/09 04:00:06;;;;;;;56.83;31.13;;;;;;;;;;4955233;29;20031;-80
2021/10/09 04:02:33;;;;;;;56.65;30.25;;;;;;;;;;4955534;29;20148;-80
2021/10/09 04:04:59;;;;;;;58.80;29.23;;;;;;;;;;4956389;29;20035;-80
2021/10/09 04:07:25;;;;;;;54.05;28.33;;;;;;;;;;4957424;29;20385;-80
2021/10/09 04:09:51;;;;;;;65.10;30.95;;;;;;;;;;4955166;29;20481;-80
2021/10/09 04:12:17;;;;;;;58.72;28.30;;;;;;;;;;4955247;29;20123;-80
2021/10/09 04:14:43;;;;;;;55.40;27.10;;;;;;;;;;4955510;29;20038;-80
2021/10/09 04:17:09;;;;;;;59.55;30.10;;;;;;;;;;4955895;28;20374;-80
2021/10/09 04:19:35;;;;;;;59.83;30.20;;;;;;;;;;4958917;29;20027;-80
2021/10/09 04:22:01;;;;;;;66.47;31.02;;;;;;;;;;4959436;29;20055;-80
2021/10/09 04:24:27;;;;;;;61.30;31.30;;;;;;;;;;4958940;29;20042;-80
2021/10/09 04:26:53;;;;;;;53.80;28.38;;;;;;;;;;4957632;29;20082;-80
2021/10/09 04:29:19;;;;;;;71.40;33.28;;;;;;;;;;4958584;29;20090;-80
2021/10/09 04:31:45;;;;;;;66.65;30.58;;;;;;;;;;4958768;29;20485;-80
2021/10/09 04:34:11;;;;;;;59.50;30.45;;;;;;;;;;4959077;29;20054;-80
2021/10/09 04:36:37;;;;;;;67.03;31.17;;;;;;;;;;4959051;29;20561;-80
2021/10/09 04:39:03;;;;;;;63.40;31.05;;;;;;;;;;4959000;29;20079;-80
2021/10/09 04:41:29;;;;;;;62.42;31.73;;;;;;;;;;4958842;29;20034;-80
2021/10/09 04:43:55;;;;;;;62.75;30.30;;;;;;;;;;4958674;29;20031;-80
2021/10/09 04:46:21;;;;;;;64.45;29.92;;;;;;;;;;4959082;29;20031;-80
2021/10/09 04:48:47;;;;;;;57.60;29.45;;;;;;;;;;4958939;29;20114;-80
2021/10/09 04:51:14;;;;;;;54.70;29.60;;;;;;;;;;4958308;29;20113;-80
2021/10/09 04:53:40;;;;;;;55.38;30.15;;;;;;;;;;4958860;29;20058;-80
2021/10/09 04:56:06;;;;;;;57.55;30.02;;;;;;;;;;4940335;29;20481;-80
2021/10/09 04:58:32;;;;;;;64.05;31.65;;;;;;;;;;4962089;29;20047;-80
2021/10/09 05:00:58;;;;;;;60.22;30.40;;;;;;;;;;4966871;29;20032;-80
2021/10/09 05:03:24;;;;;;;64.10;33.05;;;;;;;;;;4966318;29;20077;-80
2021/10/09 05:05:50;;;;;;;67.82;31.85;;;;;;;;;;4958413;29;20117;-80
2021/10/09 05:08:16;;;;;;;55.72;30.40;;;;;;;;;;4958381;29;20035;-80
2021/10/09 05:10:43;;;;;;;58.42;30.42;;;;;;;;;;4958435;29;20023;-80
2021/10/09 05:13:09;;;;;;;54.35;28.80;;;;;;;;;;4941514;29;20038;-80
2021/10/09 05:15:39;;;;;;;53.78;29.55;;;;;;;;;;4957876;29;20035;-80
2021/10/09 05:18:05;;;;;;;57.95;29.98;;;;;;;;;;4958023;29;20030;-80
2021/10/09 05:20:31;;;;;;;52.08;29.38;;;;;;;;;;4925530;29;20477;-80
2021/10/09 05:22:57;;;;;;;50.53;28.10;;;;;;;;;;4958054;29;20090;-80
2021/10/09 05:25:23;;;;;;;51.97;26.58;;;;;;;;;;4942479;29;20043;-80
2021/10/09 05:28:01;;;;;;;52.35;27.60;;;;;;;;;;4957458;29;20547;-80
2021/10/09 05:30:27;;;;;;;51.80;28.38;;;;;;;;;;4966272;29;20078;-80
2021/10/09 05:33:10;;;;;;;53.90;28.60;;;;;;;;;;4967350;29;20083;-80
2021/10/09 05:35:36;;;;;;;56.90;28.33;;;;;;;;;;4961503;29;20397;-80
2021/10/09 05:38:02;;;;;;;45.00;26.42;;;;;;;;;;4958016;29;20027;-80
2021/10/09 05:40:28;;;;;;;55.65;27.30;;;;;;;;;;4957788;29;20058;-80
2021/10/09 05:42:53;;;;;;;51.10;27.67;;;;;;;;;;4957483;29;20115;-80
2021/10/09 05:45:20;;;;;;;57.85;28.13;;;;;;;;;;4957620;29;20049;-80
2021/10/09 05:47:48;;;;;;;49.03;26.75;;;;;;;;;;4957630;29;20387;-80
2021/10/09 05:50:15;;;;;;;55.05;27.25;;;;;;;;;;4957228;29;20053;-80
2021/10/09 05:52:50;;;;;;;48.47;27.90;;;;;;;;;;4940043;29;20027;-80
2021/10/09 05:55:23;;;;;;;55.58;26.52;;;;;;;;;;4941649;29;20031;-80
2021/10/09 07:00:44;;;;;;;35.85;20.77;;;;;;;;;;4957168;29;20041;-80
2021/10/09 07:03:10;;;;;;;33.45;20.67;;;;;;;;;;4957825;29;20493;-80
2021/10/09 07:05:41;;;;;;;34.65;19.45;;;;;;;;;;4957602;29;20042;-80
2021/10/09 07:08:10;;;;;;;28.83;18.05;;;;;;;;;;4957290;29;20027;-79
2021/10/09 07:10:39;;;;;;;33.50;19.75;;;;;;;;;;4955315;29;20036;-80
2021/10/09 07:13:05;;;;;;;36.97;19.63;;;;;;;;;;4956552;29;20551;-80
2021/10/09 07:15:35;;;;;;;27.25;17.83;;;;;;;;;;4956331;29;20090;-80
2021/10/09 07:18:02;;;;;;;31.35;18.80;;;;;;;;;;4961575;29;20388;-80
2021/10/09 07:20:28;;;;;;;31.77;17.63;;;;;;;;;;4962713;29;20106;-80
2021/10/09 07:22:54;;;;;;;30.80;17.63;;;;;;;;;;4961278;29;20023;-80
2021/10/09 07:25:20;;;;;;;27.77;17.40;;;;;;;;;;4962403;29;20066;-80
2021/10/09 07:27:47;;;;;;;25.83;16.45;;;;;;;;;;4949688;29;20050;-80
2021/10/09 07:30:13;;;;;;;23.75;15.95;;;;;;;;;;4963300;29;20492;-80
2021/10/09 07:32:39;;;;;;;26.52;16.05;;;;;;;;;;4963339;29;20046;-81
2021/10/09 07:35:05;;;;;;;24.83;16.02;;;;;;;;;;4962967;29;20082;-80
2021/10/09 07:37:31;;;;;;;23.25;16.65;;;;;;;;;;4964873;29;20027;-80
2021/10/09 07:39:58;;;;;;;25.83;16.05;;;;;;;;;;4964946;29;20054;-80
2021/10/09 07:42:24;;;;;;;28.10;16.92;;;;;;;;;;4959444;28;20039;-80
2021/10/09 07:44:50;;;;;;;24.63;14.90;;;;;;;;;;4978387;28;20019;-80
2021/10/09 07:47:17;;;;;;;23.27;15.45;;;;;;;;;;4977643;29;20027;-80
2021/10/09 07:49:43;;;;;;;24.17;15.18;;;;;;;;;;4965640;28;20106;-81
2021/10/09 07:52:09;;;;;;;24.55;14.38;;;;;;;;;;4944221;29;20038;-81
2021/10/09 07:54:36;;;;;;;23.83;14.35;;;;;;;;;;4961275;29;20408;-81
2021/10/09 07:57:02;;;;;;;21.77;14.40;;;;;;;;;;4949126;29;20490;-80
2021/10/09 07:59:28;;;;;;;21.65;14.00;;;;;;;;;;4961708;29;20051;-81
2021/10/09 08:01:54;;;;;;;25.10;15.02;;;;;;;;;;4959592;29;20383;-81
2021/10/09 08:04:20;;;;;;;21.42;13.57;;;;;;;;;;4959709;29;20031;-81
2021/10/09 08:06:46;;;;;;;26.00;14.30;;;;;;;;;;4960863;29;20516;-81
2021/10/09 08:09:12;;;;;;;23.55;14.00;;;;;;;;;;4959660;29;20039;-80
2021/10/09 08:11:39;;;;;;;26.30;14.05;;;;;;;;;;4962839;29;20066;-80
2021/10/09 08:14:05;;;;;;;22.27;13.48;;;;;;;;;;4962338;29;20035;-80
2021/10/09 08:16:32;;;;;;;24.02;13.20;;;;;;;;;;4942250;29;20111;-80
2021/10/09 08:19:00;;;;;;;26.60;14.45;;;;;;;;;;4959577;29;20400;-80
2021/10/09 08:21:27;;;;;;;20.95;12.57;;;;;;;;;;4959682;29;20029;-80
2021/10/09 08:24:18;;;;;;;19.23;12.80;;;;;;;;;;4961941;29;20030;-80
2021/10/09 08:27:11;;;;;;;23.67;13.70;;;;;;;;;;4951313;29;20064;-80
2021/10/09 08:40:35;;;;;;;18.17;12.05;;;;;;;;;;4961035;29;20098;-81
2021/10/09 08:43:01;;;;;;;21.67;12.15;;;;;;;;;;4961423;29;20043;-80
2021/10/09 08:45:27;;;;;;;25.85;12.07;;;;;;;;;;4961157;29;20038;-80
2021/10/09 08:47:54;;;;;;;23.10;11.63;;;;;;;;;;4958585;29;20046;-80
2021/10/09 08:50:20;;;;;;;23.08;12.05;;;;;;;;;;4943092;29;20032;-80
2021/10/09 08:52:56;;;;;;;18.70;10.63;;;;;;;;;;4957897;29;20075;-80
2021/10/09 08:55:23;;;;;;;20.65;10.80;;;;;;;;;;4958173;29;20031;-80
2021/10/09 08:57:50;;;;;;;22.75;11.00;;;;;;;;;;4946130;29;20031;-80
2021/10/09 09:00:22;;;;;;;14.80;10.63;;;;;;;;;;4956719;29;20075;-80
2021/10/09 09:02:53;;;;;;;21.35;10.45;;;;;;;;;;4938252;28;20041;-80
2021/10/09 09:07:57;;;;;;;16.58;10.43;;;;;;;;;;4960722;29;20046;-80
2021/10/09 09:41:24;;;;;;;13.52;9.65;;;;;;;;;;4962772;29;20067;-82
2021/10/09 09:43:53;;;;;;;15.45;9.75;;;;;;;;;;4946113;29;20511;-82
2021/10/09 09:46:23;;;;;;;14.75;10.20;;;;;;;;;;4963867;29;20023;-82
2021/10/09 09:48:50;;;;;;;22.25;10.18;;;;;;;;;;4972971;29;20026;-81
2021/10/09 09:51:18;;;;;;;22.33;10.00;;;;;;;;;;4971191;29;20039;-81
2021/10/09 09:53:45;;;;;;;15.15;9.27;;;;;;;;;;4964745;29;20074;-82
2021/10/09 09:56:12;;;;;;;13.38;9.75;;;;;;;;;;4956456;29;20027;-82
2021/10/09 09:58:40;;;;;;;13.23;10.05;;;;;;;;;;4953724;29;20043;-82
2021/10/09 10:01:07;;;;;;;15.80;9.65;;;;;;;;;;4960881;29;20024;-82
2021/10/09 10:03:33;;;;;;;20.10;10.02;;;;;;;;;;4960999;29;20109;-82
2021/10/09 10:06:01;;;;;;;13.07;8.82;;;;;;;;;;4960775;29;20039;-82
2021/10/09 10:08:27;;;;;;;15.02;8.95;;;;;;;;;;4961073;29;20035;-82
2021/10/09 10:10:55;;;;;;;13.77;8.63;;;;;;;;;;4961217;29;20043;-82
2021/10/09 10:13:25;;;;;;;15.73;9.50;;;;;;;;;;4961057;29;20034;-82
2021/10/09 10:15:53;;;;;;;13.30;8.45;;;;;;;;;;4962917;28;20488;-82
2021/10/09 10:18:38;;;;;;;17.65;9.50;;;;;;;;;;4976015;29;20015;-81
2021/10/09 10:21:04;;;;;;;15.00;9.80;;;;;;;;;;4978107;28;20023;-82
2021/10/09 10:23:34;;;;;;;15.95;10.10;;;;;;;;;;4978525;28;20022;-82
2021/10/09 10:26:18;;;;;;;16.27;9.20;;;;;;;;;;4958091;28;20529;-82
2021/10/09 10:28:45;;;;;;;15.18;9.52;;;;;;;;;;4958518;29;20054;-83
2021/10/09 10:31:11;;;;;;;15.50;9.73;;;;;;;;;;4961580;29;20030;-81
2021/10/09 10:33:47;;;;;;;13.65;8.63;;;;;;;;;;4960305;29;20059;-82
2021/10/09 10:36:33;;;;;;;17.48;10.40;;;;;;;;;;4959693;29;20023;-82
2021/10/09 10:38:59;;;;;;;16.13;9.55;;;;;;;;;;4960295;29;20027;-82
2021/10/09 10:41:41;;;;;;;13.43;9.18;;;;;;;;;;4960189;29;20058;-82
2021/10/09 10:44:09;;;;;;;15.20;8.65;;;;;;;;;;4961243;29;20031;-81
2021/10/09 10:46:42;;;;;;;13.65;8.93;;;;;;;;;;4960247;29;20027;-82
2021/10/09 10:51:56;;;;;;;17.15;8.68;;;;;;;;;;4960355;29;20055;-82
2021/10/09 10:57:00;;;;;;;13.48;8.63;;;;;;;;;;4949061;29;20032;-82
2021/10/09 10:59:31;;;;;;;14.02;9.32;;;;;;;;;;4959356;29;20624;-82
2021/10/09 11:02:15;;;;;;;14.88;9.65;;;;;;;;;;4960850;29;20425;-82
2021/10/09 11:04:41;;;;;;;14.27;8.98;;;;;;;;;;4959612;29;20119;-82
2021/10/09 11:07:07;;;;;;;15.60;9.63;;;;;;;;;;4958908;29;20054;-82
2021/10/09 11:09:34;;;;;;;17.85;9.57;;;;;;;;;;4941008;29;20107;-82
2021/10/09 11:12:01;;;;;;;12.43;9.00;;;;;;;;;;4959571;29;20062;-82
2021/10/09 11:14:27;;;;;;;15.00;8.80;;;;;;;;;;4958103;29;20038;-82
2021/10/09 11:17:00;;;;;;;11.98;8.15;;;;;;;;;;4959432;29;20027;-82
2021/10/09 11:19:42;;;;;;;13.73;8.63;;;;;;;;;;4959200;29;20031;-81
2021/10/09 11:22:09;;;;;;;11.38;8.35;;;;;;;;;;4958764;29;20597;-81
2021/10/09 11:24:42;;;;;;;13.35;9.38;;;;;;;;;;4958309;29;20123;-83
2021/10/09 11:27:09;;;;;;;17.30;10.27;;;;;;;;;;4946827;29;20032;-81
2021/10/09 11:29:35;;;;;;;15.85;9.73;;;;;;;;;;4939421;29;20039;-80
2021/10/09 11:32:10;;;;;;;15.27;9.35;;;;;;;;;;4949893;29;20500;-81
2021/10/09 11:34:49;;;;;;;17.88;9.10;;;;;;;;;;4941429;29;20043;-82
2021/10/09 11:37:16;;;;;;;14.52;9.98;;;;;;;;;;4958727;29;20559;-81
2021/10/09 11:39:50;;;;;;;12.93;8.90;;;;;;;;;;4958414;29;20031;-81
2021/10/09 11:42:19;;;;;;;16.08;9.10;;;;;;;;;;4958985;29;20045;-81
2021/10/09 11:44:59;;;;;;;16.08;9.50;;;;;;;;;;4958443;29;20031;-81
2021/10/09 11:55:46;;;;;;;18.55;10.10;;;;;;;;;;4961162;29;20118;-81
2021/10/09 11:58:12;;;;;;;15.02;9.65;;;;;;;;;;4950311;29;20039;-82
2021/10/09 12:00:39;;;;;;;15.38;9.68;;;;;;;;;;4953499;29;20074;-81
2021/10/09 12:03:24;;;;;;;13.77;8.88;;;;;;;;;;4951409;29;20031;-81
2021/10/09 12:05:52;;;;;;;17.40;9.07;;;;;;;;;;4958306;29;20034;-81
2021/10/09 12:08:23;;;;;;;15.93;9.90;;;;;;;;;;4958419;29;20031;-81
2021/10/09 12:11:08;;;;;;;14.35;9.27;;;;;;;;;;4958181;29;20035;-81
2021/10/09 12:13:44;;;;;;;16.40;9.10;;;;;;;;;;4955498;29;20492;-82
2021/10/09 12:16:10;;;;;;;15.82;8.75;;;;;;;;;;4958292;29;20039;-82
2021/10/09 12:18:46;;;;;;;16.23;8.38;;;;;;;;;;4959064;29;20050;-82
2021/10/09 12:21:12;;;;;;;11.90;8.48;;;;;;;;;;4958689;29;20046;-82
2021/10/09 12:23:38;;;;;;;14.05;9.00;;;;;;;;;;4941751;29;20031;-82
2021/10/09 12:26:14;;;;;;;14.98;9.20;;;;;;;;;;4955372;29;20034;-82
2021/10/09 12:28:59;;;;;;;13.93;8.82;;;;;;;;;;4940153;29;20028;-82
2021/10/09 12:31:28;;;;;;;15.23;9.27;;;;;;;;;;4944064;29;20031;-82
2021/10/09 12:33:55;;;;;;;13.73;8.77;;;;;;;;;;4962836;29;20036;-82
2021/10/09 12:38:57;;;;;;;15.68;8.35;;;;;;;;;;4961563;28;20027;-82
2021/10/09 12:41:23;;;;;;;13.75;9.52;;;;;;;;;;4974274;29;20019;-82
2021/10/09 12:43:53;;;;;;;15.63;9.43;;;;;;;;;;4982845;28;20072;-82
2021/10/09 12:46:20;;;;;;;16.05;9.77;;;;;;;;;;4981429;28;20072;-81
2021/10/09 12:48:50;;;;;;;15.85;8.80;;;;;;;;;;4980387;29;20082;-82
2021/10/09 12:51:37;;;;;;;15.43;8.90;;;;;;;;;;4944232;28;20070;-81
2021/10/09 12:54:09;;;;;;;16.00;9.05;;;;;;;;;;4963564;29;20031;-81
2021/10/09 12:56:35;;;;;;;;;;;;;;;;;;4955827;29;20028;-80
2021/10/09 12:59:01;;;;;;;18.95;9.40;;;;;;;;;;4944201;29;19906;-81
2021/10/09 13:01:28;;;;;;;14.77;9.05;;;;;;;;;;4948177;29;20102;-81
2021/10/09 13:03:54;;;;;;;11.55;8.27;;;;;;;;;;4962949;29;20039;-81
2021/10/09 13:06:20;;;;;;;13.57;8.60;;;;;;;;;;4944550;29;20031;-81
2021/10/09 13:08:46;;;;;;;17.02;9.48;;;;;;;;;;4945275;29;20030;-80
2021/10/09 13:11:12;;;;;;;17.50;9.13;;;;;;;;;;4961618;29;20027;-81
2021/10/09 13:13:39;;;;;;;16.40;9.20;;;;;;;;;;4962527;29;20034;-80
2021/10/09 13:16:07;;;;;;;14.95;8.50;;;;;;;;;;4944406;29;20428;-81
2021/10/09 13:18:33;;;;;;;13.85;8.70;;;;;;;;;;4944094;29;20062;-81
2021/10/09 13:20:59;;;;;;;11.65;8.10;;;;;;;;;;4960013;29;20031;-81
2021/10/09 13:23:31;;;;;;;14.00;8.27;;;;;;;;;;4943977;29;20103;-81
2021/10/09 13:25:57;;;;;;;13.48;9.00;;;;;;;;;;4958677;29;20110;-80
2021/10/09 13:28:23;;;;;;;13.70;7.97;;;;;;;;;;4942732;29;20063;-81
2021/10/09 13:30:51;;;;;;;13.38;8.63;;;;;;;;;;4943129;29;20067;-81
2021/10/09 13:33:17;;;;;;;14.48;7.65;;;;;;;;;;4963431;29;20031;-80
2021/10/09 13:35:43;;;;;;;14.13;8.80;;;;;;;;;;4973738;29;20035;-81
2021/10/09 13:38:11;;;;;;;14.32;9.00;;;;;;;;;;4971548;29;20024;-81
2021/10/09 13:40:38;;;;;;;17.27;8.23;;;;;;;;;;4962981;29;20106;-81
2021/10/09 13:43:04;;;;;;;15.80;8.43;;;;;;;;;;4961442;29;20274;-81
2021/10/09 13:45:30;;;;;;;12.32;8.30;;;;;;;;;;4961404;29;20069;-81
2021/10/09 13:47:56;;;;;;;13.00;8.10;;;;;;;;;;4961613;29;20487;-81
2021/10/09 13:50:23;;;;;;;13.48;8.18;;;;;;;;;;4958960;28;20039;-81
2021/10/09 13:52:49;;;;;;;14.73;8.85;;;;;;;;;;4961820;29;20114;-81
2021/10/09 13:55:15;;;;;;;12.38;8.70;;;;;;;;;;4961585;29;20512;-82
2021/10/09 13:57:41;;;;;;;15.65;8.00;;;;;;;;;;4944613;29;20051;-81
2021/10/09 14:00:07;;;;;;;14.32;8.25;;;;;;;;;;4942455;29;20034;-81
2021/10/09 14:02:35;;;;;;;18.27;7.55;;;;;;;;;;4961051;29;20050;-81
2021/10/09 14:05:01;;;;;;;13.25;8.50;;;;;;;;;;4970891;29;20057;-80
2021/10/09 14:07:27;;;;;;;9.88;7.38;;;;;;;;;;4972301;29;20448;-81
2021/10/09 14:09:53;;;;;;;13.00;7.60;;;;;;;;;;4950701;29;20046;-81
2021/10/09 14:12:19;;;;;;;13.55;7.68;;;;;;;;;;4960424;29;20531;-81
2021/10/09 14:14:45;;;;;;;12.57;7.65;;;;;;;;;;4943068;29;20031;-80
2021/10/09 14:17:11;;;;;;;12.00;7.80;;;;;;;;;;4926177;29;20032;-81
2021/10/09 14:19:37;;;;;;;16.33;8.77;;;;;;;;;;4959588;29;20027;-80
2021/10/09 14:22:03;;;;;;;14.15;7.90;;;;;;;;;;4960485;29;20375;-81
2021/10/09 14:24:29;;;;;;;13.88;6.80;;;;;;;;;;4960022;29;20039;-82
2021/10/09 14:26:54;;;;;;;13.40;7.82;;;;;;;;;;4950040;29;20034;-81
2021/10/09 14:29:20;;;;;;;14.23;7.05;;;;;;;;;;4950928;29;20050;-81
2021/10/09 14:31:46;;;;;;;11.80;7.13;;;;;;;;;;4959645;29;20055;-81
2021/10/09 14:34:12;;;;;;;15.60;7.13;;;;;;;;;;4959779;29;20420;-81
2021/10/09 14:36:38;;;;;;;11.80;6.82;;;;;;;;;;4960192;29;20046;-82
2021/10/09 14:39:04;;;;;;;12.90;7.43;;;;;;;;;;4960296;29;20373;-81
2021/10/09 14:41:30;;;;;;;12.80;7.20;;;;;;;;;;4958751;29;20035;-81
2021/10/09 14:43:56;;;;;;;13.10;7.40;;;;;;;;;;4960282;29;20027;-81
2021/10/09 14:48:53;;;;;;;12.02;6.88;;;;;;;;;;4959938;29;20028;-83
2021/10/09 14:54:30;;;;;;;10.68;6.53;;;;;;;;;;4959400;29;20417;-81
2021/10/09 15:18:36;;;;;;;12.18;6.88;;;;;;;;;;4959339;29;20396;-82
2021/10/09 15:21:02;;;;;;;11.10;7.15;;;;;;;;;;4960324;29;20063;-82
2021/10/09 15:23:29;;;;;;;13.40;7.05;;;;;;;;;;4961566;29;20445;-82
2021/10/09 15:25:55;;;;;;;10.02;6.93;;;;;;;;;;4959646;29;20024;-82
2021/10/09 15:28:21;;;;;;;23.55;7.30;;;;;;;;;;4960735;29;20481;-81
2021/10/09 15:30:47;;;;;;;12.57;6.60;;;;;;;;;;4944859;29;20480;-82
2021/10/09 15:33:13;;;;;;;11.32;7.00;;;;;;;;;;4961871;29;20046;-81
2021/10/09 15:35:40;;;;;;;15.30;6.80;;;;;;;;;;4963254;29;20047;-82
2021/10/09 15:38:06;;;;;;;16.25;7.68;;;;;;;;;;4976127;28;20043;-81
2021/10/09 15:40:32;;;;;;;11.32;7.35;;;;;;;;;;4975508;29;20050;-81
2021/10/09 15:42:58;;;;;;;12.68;6.18;;;;;;;;;;4967080;29;20035;-81
2021/10/09 15:45:24;;;;;;;13.82;7.40;;;;;;;;;;4966492;29;20051;-81
2021/10/09 15:47:51;;;;;;;11.25;8.35;;;;;;;;;;4964920;29;20035;-81
2021/10/09 15:50:21;;;;;;;11.40;7.03;;;;;;;;;;4962780;29;20464;-81
2021/10/09 15:52:48;;;;;;;16.95;7.53;;;;;;;;;;4963721;29;20499;-81
2021/10/09 15:55:14;;;;;;;11.27;6.68;;;;;;;;;;4960997;29;20039;-81
2021/10/09 15:57:41;;;;;;;11.77;6.72;;;;;;;;;;4934979;29;20027;-81
2021/10/09 16:00:08;;;;;;;13.30;7.10;;;;;;;;;;4958199;29;20472;-80
2021/10/09 16:02:34;;;;;;;14.13;7.20;;;;;;;;;;4959041;29;20127;-80
2021/10/09 16:05:00;;;;;;;13.40;7.30;;;;;;;;;;4958945;29;20114;-81
2021/10/09 16:07:27;;;;;;;10.75;6.90;;;;;;;;;;4958879;29;20058;-81
2021/10/09 16:09:53;;;;;;;11.23;7.00;;;;;;;;;;4958203;29;20031;-80
2021/10/09 16:12:18;;;;;;;15.13;7.25;;;;;;;;;;4958177;29;20063;-81
2021/10/09 16:14:44;;;;;;;18.83;7.55;;;;;;;;;;4957045;29;20058;-81
2021/10/09 16:17:24;;;;;;;15.90;6.88;;;;;;;;;;4957978;29;20512;-81
2021/10/09 16:19:50;;;;;;;9.60;6.65;;;;;;;;;;4958131;29;20142;-81
2021/10/09 16:22:16;;;;;;;11.20;6.88;;;;;;;;;;4941486;29;20055;-81
2021/10/09 16:24:42;;;;;;;10.95;7.18;;;;;;;;;;4958000;29;20034;-81
2021/10/09 16:27:08;;;;;;;14.70;6.65;;;;;;;;;;4954613;29;20080;-81
2021/10/09 16:29:34;;;;;;;10.48;6.30;;;;;;;;;;4958053;29;20110;-80
2021/10/09 16:32:01;;;;;;;11.52;7.05;;;;;;;;;;4958276;29;20063;-81
2021/10/09 16:34:27;;;;;;;12.65;6.80;;;;;;;;;;4959269;29;20059;-81
2021/10/09 16:36:56;;;;;;;15.15;7.53;;;;;;;;;;4924891;29;20050;-81
2021/10/09 16:39:22;;;;;;;13.60;7.80;;;;;;;;;;4941490;29;20032;-81
2021/10/09 16:41:51;;;;;;;12.25;7.22;;;;;;;;;;4957575;29;20030;-80
2021/10/09 16:44:17;;;;;;;14.98;8.23;;;;;;;;;;4943349;29;20620;-80
2021/10/09 16:46:44;;;;;;;14.73;7.82;;;;;;;;;;4960130;29;20031;-81
2021/10/09 16:49:10;;;;;;;15.70;8.75;;;;;;;;;;4953174;29;20111;-80
2021/10/09 16:51:36;;;;;;;13.27;7.70;;;;;;;;;;4968645;29;20031;-80
2021/10/09 16:54:02;;;;;;;16.83;8.40;;;;;;;;;;4967065;29;20055;-80
2021/10/09 16:56:28;;;;;;;13.60;8.23;;;;;;;;;;4957732;29;20039;-81
2021/10/09 16:58:54;;;;;;;14.00;8.00;;;;;;;;;;4958453;29;20035;-81
2021/10/09 17:01:20;;;;;;;15.82;8.38;;;;;;;;;;4956355;29;20035;-81
2021/10/09 17:03:46;;;;;;;13.18;7.78;;;;;;;;;;4957311;29;20038;-81
2021/10/09 17:06:12;;;;;;;14.00;8.05;;;;;;;;;;4957309;29;20067;-81
2021/10/09 17:08:38;;;;;;;14.98;9.05;;;;;;;;;;4957514;29;20591;-81